createdAt,value
2016-04-24T00:00:09.187Z,1013.75
2016-04-24T00:01:09.173Z,1013.77
2016-04-24T00:02:09.161Z,1013.72
2016-04-24T00:03:09.133Z,1013.72
2016-04-24T00:04:09.119Z,1013.72
2016-04-24T00:05:09.106Z,1013.74
2016-04-24T00:06:09.094Z,1013.69
2016-04-24T00:07:09.080Z,1013.69
2016-04-24T00:08:09.053Z,1013.68
2016-04-24T00:09:09.039Z,1013.66
2016-04-24T00:10:09.026Z,1013.64
2016-04-24T00:11:09.030Z,1013.63
2016-04-24T00:12:09.000Z,1013.65
2016-04-24T00:13:08.987Z,1013.63
2016-04-24T00:14:08.975Z,1013.63
2016-04-24T00:15:08.961Z,1013.67
2016-04-24T00:16:08.949Z,1013.67
2016-04-24T00:17:08.920Z,1013.69
2016-04-24T00:18:08.907Z,1013.67
2016-04-24T00:19:08.894Z,1013.68
2016-04-24T00:20:08.881Z,1013.64
2016-04-24T00:21:08.852Z,1013.62
2016-04-24T00:22:09.574Z,1013.59
2016-04-24T00:23:08.826Z,1013.57
2016-04-24T00:24:08.815Z,1013.55
2016-04-24T00:25:08.801Z,1013.46
2016-04-24T00:26:08.787Z,1013.51
2016-04-24T00:27:08.760Z,1013.58
2016-04-24T00:28:08.746Z,1013.54
2016-04-24T00:29:08.733Z,1013.54
2016-04-24T00:30:08.721Z,1013.46
2016-04-24T00:31:08.708Z,1013.47
2016-04-24T00:32:08.695Z,1013.45
2016-04-24T00:33:08.681Z,1013.42
2016-04-24T00:34:08.653Z,1013.47
2016-04-24T00:35:08.640Z,1013.47
2016-04-24T00:36:08.627Z,1013.49
2016-04-24T00:37:08.614Z,1013.44
2016-04-24T00:38:08.602Z,1013.45
2016-04-24T00:39:08.588Z,1013.48
2016-04-24T00:40:08.576Z,1013.44
2016-04-24T00:41:08.547Z,1013.41
2016-04-24T00:42:08.533Z,1013.35
2016-04-24T00:43:08.522Z,1013.34
2016-04-24T00:44:08.508Z,1013.32
2016-04-24T00:45:08.479Z,1013.29
2016-04-24T00:46:08.483Z,1013.25
2016-04-24T00:47:08.454Z,1013.25
2016-04-24T00:48:08.441Z,1013.24
2016-04-24T00:49:08.427Z,1013.21
2016-04-24T00:50:08.415Z,1013.24
2016-04-24T00:51:08.402Z,1013.19
2016-04-24T00:52:08.373Z,1013.2
2016-04-24T00:53:08.360Z,1013.17
2016-04-24T00:54:08.348Z,1013.18
2016-04-24T00:55:08.334Z,1013.13
2016-04-24T00:56:08.322Z,1013.18
2016-04-24T00:57:08.309Z,1013.16
2016-04-24T00:58:08.280Z,1013.11
2016-04-24T00:59:08.268Z,1013.09
2016-04-24T01:00:08.254Z,1013.07
2016-04-24T01:01:08.241Z,1013.08
2016-04-24T01:02:08.229Z,1013.08
2016-04-24T01:03:08.215Z,1013.11
2016-04-24T01:04:08.187Z,1013.1
2016-04-24T01:05:08.175Z,1013.09
2016-04-24T01:06:08.161Z,1013.11
2016-04-24T01:07:08.148Z,1013.12
2016-04-24T01:08:08.135Z,1013.12
2016-04-24T01:09:08.106Z,1013.12
2016-04-24T01:10:08.094Z,1013.12
2016-04-24T01:11:08.080Z,1013.14
2016-04-24T01:12:08.069Z,1013.09
2016-04-24T01:13:08.055Z,1013.04
2016-04-24T01:14:08.041Z,1012.96
2016-04-24T01:15:08.014Z,1012.97
2016-04-24T01:16:08.000Z,1012.89
2016-04-24T01:17:07.987Z,1012.86
2016-04-24T01:18:07.975Z,1012.84
2016-04-24T01:19:07.962Z,1012.75
2016-04-24T01:20:07.933Z,1012.81
2016-04-24T01:21:07.936Z,1012.77
2016-04-24T01:22:07.907Z,1012.73
2016-04-24T01:23:07.912Z,1012.76
2016-04-24T01:24:07.883Z,1012.72
2016-04-24T01:25:07.855Z,1012.71
2016-04-24T01:26:07.842Z,1012.7
2016-04-24T01:27:07.828Z,1012.65
2016-04-24T01:28:07.817Z,1012.65
2016-04-24T01:29:07.803Z,1012.65
2016-04-24T01:30:07.790Z,1012.64
2016-04-24T01:31:07.762Z,1012.64
2016-04-24T01:32:07.749Z,1012.62
2016-04-24T01:33:07.736Z,1012.61
2016-04-24T01:34:07.722Z,1012.64
2016-04-24T01:35:07.710Z,1012.6
2016-04-24T01:36:07.697Z,1012.57
2016-04-24T01:37:07.700Z,1012.59
2016-04-24T01:38:08.608Z,1012.58
2016-04-24T01:39:07.658Z,1012.57
2016-04-24T01:40:07.629Z,1012.51
2016-04-24T01:41:07.616Z,1012.52
2016-04-24T01:42:07.604Z,1012.5
2016-04-24T01:43:07.574Z,1012.49
2016-04-24T01:44:07.563Z,1012.48
2016-04-24T01:45:07.549Z,1012.45
2016-04-24T01:46:07.537Z,1012.4
2016-04-24T01:47:07.524Z,1012.35
2016-04-24T01:48:07.495Z,1012.32
2016-04-24T01:49:07.498Z,1012.29
2016-04-24T01:50:07.468Z,1012.3
2016-04-24T01:51:07.456Z,1012.28
2016-04-24T01:52:07.443Z,1012.29
2016-04-24T01:53:07.431Z,1012.24
2016-04-24T01:54:07.435Z,1012.28
2016-04-24T01:55:07.463Z,1012.31
2016-04-24T01:56:07.490Z,1012.24
2016-04-24T01:57:07.517Z,1012.22
2016-04-24T01:58:07.546Z,1012.24
2016-04-24T01:59:07.550Z,1012.15
2016-04-24T02:00:07.537Z,1012.2
2016-04-24T02:01:07.538Z,1012.15
2016-04-24T02:02:07.541Z,1012.2
2016-04-24T02:03:07.542Z,1012.2
2016-04-24T02:04:07.535Z,1012.25
2016-04-24T02:05:07.513Z,1012.13
2016-04-24T02:06:07.505Z,1012.19
2016-04-24T02:07:07.497Z,1012.12
2016-04-24T02:08:08.005Z,1012.13
2016-04-24T02:09:07.479Z,1012.1
2016-04-24T02:10:07.452Z,1012.2
2016-04-24T02:11:07.442Z,1012.15
2016-04-24T02:12:07.430Z,1012.17
2016-04-24T02:13:07.420Z,1012.2
2016-04-24T02:14:07.408Z,1012.23
2016-04-24T02:15:07.395Z,1012.28
2016-04-24T02:16:07.367Z,1012.29
2016-04-24T02:17:07.354Z,1012.32
2016-04-24T02:18:07.342Z,1012.33
2016-04-24T02:19:07.328Z,1012.34
2016-04-24T02:20:07.317Z,1012.34
2016-04-24T02:21:07.304Z,1012.38
2016-04-24T02:22:07.276Z,1012.39
2016-04-24T02:23:07.263Z,1012.42
2016-04-24T02:24:07.250Z,1012.43
2016-04-24T02:25:07.222Z,1012.42
2016-04-24T02:26:07.224Z,1012.46
2016-04-24T02:27:07.196Z,1012.43
2016-04-24T02:28:07.183Z,1012.44
2016-04-24T02:29:07.170Z,1012.44
2016-04-24T02:30:07.141Z,1012.44
2016-04-24T02:31:07.144Z,1012.44
2016-04-24T02:32:07.131Z,1012.46
2016-04-24T02:33:07.103Z,1012.43
2016-04-24T02:34:07.090Z,1012.52
2016-04-24T02:35:07.076Z,1012.53
2016-04-24T02:36:07.064Z,1012.56
2016-04-24T02:37:07.051Z,1012.59
2016-04-24T02:38:07.022Z,1012.54
2016-04-24T02:39:07.010Z,1012.57
2016-04-24T02:40:10.590Z,1012.55
2016-04-24T02:41:06.984Z,1012.53
2016-04-24T02:42:06.955Z,1012.55
2016-04-24T02:43:06.942Z,1012.51
2016-04-24T02:44:06.928Z,1012.48
2016-04-24T02:45:06.916Z,1012.43
2016-04-24T02:46:06.903Z,1012.46
2016-04-24T02:47:06.891Z,1012.43
2016-04-24T02:48:06.862Z,1012.43
2016-04-24T02:49:06.849Z,1012.42
2016-04-24T02:50:06.836Z,1012.41
2016-04-24T02:51:06.822Z,1012.43
2016-04-24T02:52:06.794Z,1012.42
2016-04-24T02:53:06.782Z,1012.42
2016-04-24T02:54:06.768Z,1012.41
2016-04-24T02:55:06.756Z,1012.42
2016-04-24T02:56:06.727Z,1012.4
2016-04-24T02:57:06.713Z,1012.43
2016-04-24T02:58:06.701Z,1012.41
2016-04-24T02:59:06.688Z,1012.43
2016-04-24T03:00:06.676Z,1012.43
2016-04-24T03:01:06.662Z,1012.39
2016-04-24T03:02:06.634Z,1012.4
2016-04-24T03:03:06.620Z,1012.43
2016-04-24T03:04:06.607Z,1012.47
2016-04-24T03:05:06.595Z,1012.41
2016-04-24T03:06:06.581Z,1012.45
2016-04-24T03:07:06.554Z,1012.44
2016-04-24T03:08:06.540Z,1012.46
2016-04-24T03:09:06.559Z,1012.49
2016-04-24T03:10:06.515Z,1012.45
2016-04-24T03:11:06.501Z,1012.42
2016-04-24T03:12:06.473Z,1012.48
2016-04-24T03:13:06.476Z,1012.51
2016-04-24T03:14:06.447Z,1012.47
2016-04-24T03:15:06.434Z,1012.51
2016-04-24T03:16:06.422Z,1012.46
2016-04-24T03:17:06.393Z,1012.47
2016-04-24T03:18:06.395Z,1012.5
2016-04-24T03:19:06.367Z,1012.5
2016-04-24T03:20:06.355Z,1012.52
2016-04-24T03:21:06.341Z,1012.48
2016-04-24T03:22:06.313Z,1012.49
2016-04-24T03:23:06.315Z,1012.49
2016-04-24T03:24:06.286Z,1012.44
2016-04-24T03:25:06.274Z,1012.43
2016-04-24T03:26:06.261Z,1012.45
2016-04-24T03:27:06.248Z,1012.48
2016-04-24T03:28:06.235Z,1012.49
2016-04-24T03:29:06.206Z,1012.49
2016-04-24T03:30:06.193Z,1012.49
2016-04-24T03:31:06.180Z,1012.46
2016-04-24T03:32:06.168Z,1012.47
2016-04-24T03:33:06.139Z,1012.48
2016-04-24T03:34:06.126Z,1012.52
2016-04-24T03:35:06.113Z,1012.47
2016-04-24T03:36:06.100Z,1012.46
2016-04-24T03:37:06.087Z,1012.44
2016-04-24T03:38:06.074Z,1012.41
2016-04-24T03:39:06.045Z,1012.41
2016-04-24T03:40:06.033Z,1012.37
2016-04-24T03:41:06.020Z,1012.35
2016-04-24T03:42:06.006Z,1012.4
2016-04-24T03:43:05.994Z,1012.41
2016-04-24T03:44:05.965Z,1012.39
2016-04-24T03:45:05.953Z,1012.34
2016-04-24T03:46:05.940Z,1012.33
2016-04-24T03:47:05.927Z,1012.25
2016-04-24T03:48:05.913Z,1012.27
2016-04-24T03:49:05.886Z,1012.22
2016-04-24T03:50:05.872Z,1012.22
2016-04-24T03:51:05.859Z,1012.18
2016-04-24T03:52:05.846Z,1012.19
2016-04-24T03:53:05.833Z,1012.17
2016-04-24T03:54:05.804Z,1012.21
2016-04-24T03:55:05.808Z,1012.2
2016-04-24T03:56:05.780Z,1012.21
2016-04-24T03:57:05.766Z,1012.24
2016-04-24T03:58:05.752Z,1012.26
2016-04-24T03:59:05.725Z,1012.24
2016-04-24T04:00:05.711Z,1012.23
2016-04-24T04:01:05.699Z,1012.18
2016-04-24T04:02:05.685Z,1012.21
2016-04-24T04:03:05.673Z,1012.21
2016-04-24T04:04:05.690Z,1012.2
2016-04-24T04:05:05.632Z,1012.19
2016-04-24T04:06:05.618Z,1012.17
2016-04-24T04:07:05.606Z,1012.12
2016-04-24T04:08:05.592Z,1012.15
2016-04-24T04:09:05.564Z,1012.11
2016-04-24T04:10:05.551Z,1012.14
2016-04-24T04:11:05.538Z,1012.09
2016-04-24T04:12:05.525Z,1012.09
2016-04-24T04:13:05.497Z,1012.12
2016-04-24T04:14:05.499Z,1012.1
2016-04-24T04:15:05.471Z,1012.11
2016-04-24T04:16:05.458Z,1012.11
2016-04-24T04:17:05.445Z,1012.15
2016-04-24T04:18:05.416Z,1012.14
2016-04-24T04:19:05.403Z,1012.18
2016-04-24T04:20:05.391Z,1012.21
2016-04-24T04:21:05.378Z,1012.2
2016-04-24T04:22:05.364Z,1012.2
2016-04-24T04:23:05.383Z,1012.19
2016-04-24T04:24:05.322Z,1012.21
2016-04-24T04:25:05.310Z,1012.16
2016-04-24T04:26:05.297Z,1012.18
2016-04-24T04:27:05.285Z,1012.14
2016-04-24T04:28:05.255Z,1012.14
2016-04-24T04:29:05.243Z,1012.15
2016-04-24T04:30:05.230Z,1012.13
2016-04-24T04:31:05.216Z,1012.11
2016-04-24T04:32:05.204Z,1012.11
2016-04-24T04:33:05.191Z,1012.04
2016-04-24T04:34:05.162Z,1012.07
2016-04-24T04:35:05.149Z,1012.1
2016-04-24T04:36:05.137Z,1012.09
2016-04-24T04:37:05.123Z,1012.12
2016-04-24T04:38:05.220Z,1012.14
2016-04-24T04:39:05.098Z,1012.17
2016-04-24T04:40:05.070Z,1012.18
2016-04-24T04:41:05.056Z,1012.22
2016-04-24T04:42:05.028Z,1012.21
2016-04-24T04:43:05.014Z,1012.24
2016-04-24T04:44:05.001Z,1012.27
2016-04-24T04:45:04.989Z,1012.3
2016-04-24T04:46:04.976Z,1012.28
2016-04-24T04:47:04.947Z,1012.26
2016-04-24T04:48:04.950Z,1012.26
2016-04-24T04:49:04.922Z,1012.26
2016-04-24T04:50:04.909Z,1012.25
2016-04-24T04:51:04.895Z,1012.29
2016-04-24T04:52:04.883Z,1012.24
2016-04-24T04:53:05.432Z,1012.26
2016-04-24T04:54:04.841Z,1012.27
2016-04-24T04:55:04.828Z,1012.31
2016-04-24T04:56:04.815Z,1012.3
2016-04-24T04:57:04.786Z,1012.33
2016-04-24T04:58:04.789Z,1012.31
2016-04-24T04:59:04.761Z,1012.25
2016-04-24T05:00:04.748Z,1012.28
2016-04-24T05:01:04.735Z,1012.3
2016-04-24T05:02:04.721Z,1012.33
2016-04-24T05:03:04.710Z,1012.37
2016-04-24T05:04:04.680Z,1012.37
2016-04-24T05:05:04.668Z,1012.44
2016-04-24T05:06:04.654Z,1012.42
2016-04-24T05:07:04.642Z,1012.4
2016-04-24T05:08:04.628Z,1012.4
2016-04-24T05:09:04.616Z,1012.42
2016-04-24T05:10:04.587Z,1012.38
2016-04-24T05:11:04.574Z,1012.41
2016-04-24T05:12:04.561Z,1012.35
2016-04-24T05:13:04.549Z,1012.38
2016-04-24T05:14:04.520Z,1012.39
2016-04-24T05:15:04.507Z,1012.36
2016-04-24T05:16:04.494Z,1012.39
2016-04-24T05:17:04.481Z,1012.41
2016-04-24T05:18:04.452Z,1012.4
2016-04-24T05:19:04.440Z,1012.41
2016-04-24T05:20:04.427Z,1012.46
2016-04-24T05:21:04.413Z,1012.43
2016-04-24T05:22:04.400Z,1012.44
2016-04-24T05:23:04.389Z,1012.42
2016-04-24T05:24:04.375Z,1012.46
2016-04-24T05:25:04.346Z,1012.42
2016-04-24T05:26:04.333Z,1012.44
2016-04-24T05:27:04.320Z,1012.44
2016-04-24T05:28:04.292Z,1012.43
2016-04-24T05:29:04.280Z,1012.43
2016-04-24T05:30:04.266Z,1012.44
2016-04-24T05:31:04.252Z,1012.45
2016-04-24T05:32:04.240Z,1012.46
2016-04-24T05:33:04.227Z,1012.49
2016-04-24T05:34:04.199Z,1012.47
2016-04-24T05:35:04.185Z,1012.46
2016-04-24T05:36:04.173Z,1012.48
2016-04-24T05:37:04.159Z,1012.46
2016-04-24T05:38:04.147Z,1012.49
2016-04-24T05:39:04.509Z,1012.48
2016-04-24T05:40:04.106Z,1012.51
2016-04-24T05:41:04.092Z,1012.51
2016-04-24T05:42:04.080Z,1012.51
2016-04-24T05:43:04.067Z,1012.53
2016-04-24T05:44:04.038Z,1012.52
2016-04-24T05:45:04.025Z,1012.54
2016-04-24T05:46:04.012Z,1012.54
2016-04-24T05:47:03.999Z,1012.55
2016-04-24T05:48:03.987Z,1012.53
2016-04-24T05:49:03.958Z,1012.48
2016-04-24T05:50:03.945Z,1012.49
2016-04-24T05:51:03.931Z,1012.45
2016-04-24T05:52:03.919Z,1012.42
2016-04-24T05:53:03.906Z,1012.44
2016-04-24T05:54:04.753Z,1012.44
2016-04-24T05:55:03.864Z,1012.42
2016-04-24T05:56:03.852Z,1012.41
2016-04-24T05:57:03.822Z,1012.41
2016-04-24T05:58:03.810Z,1012.42
2016-04-24T05:59:03.797Z,1012.43
2016-04-24T06:00:03.785Z,1012.39
2016-04-24T06:01:03.771Z,1012.42
2016-04-24T06:02:03.758Z,1012.42
2016-04-24T06:03:03.730Z,1012.44
2016-04-24T06:04:03.716Z,1012.45
2016-04-24T06:05:03.704Z,1012.46
2016-04-24T06:06:03.691Z,1012.5
2016-04-24T06:07:03.678Z,1012.51
2016-04-24T06:08:03.649Z,1012.53
2016-04-24T06:09:03.637Z,1012.55
2016-04-24T06:10:03.623Z,1012.56
2016-04-24T06:11:03.610Z,1012.6
2016-04-24T06:12:03.598Z,1012.63
2016-04-24T06:13:03.570Z,1012.61
2016-04-24T06:14:03.556Z,1012.65
2016-04-24T06:15:03.559Z,1012.65
2016-04-24T06:16:03.530Z,1012.63
2016-04-24T06:17:03.517Z,1012.64
2016-04-24T06:18:03.504Z,1012.69
2016-04-24T06:19:03.476Z,1012.7
2016-04-24T06:20:03.463Z,1012.7
2016-04-24T06:21:03.450Z,1012.72
2016-04-24T06:22:03.421Z,1012.7
2016-04-24T06:23:03.414Z,1012.73
2016-04-24T06:24:03.901Z,1012.72
2016-04-24T06:25:03.373Z,1012.69
2016-04-24T06:26:03.359Z,1012.7
2016-04-24T06:27:03.347Z,1012.69
2016-04-24T06:28:03.334Z,1012.68
2016-04-24T06:29:03.306Z,1012.71
2016-04-24T06:30:03.292Z,1012.66
2016-04-24T06:31:03.280Z,1012.7
2016-04-24T06:32:03.267Z,1012.69
2016-04-24T06:33:03.254Z,1012.65
2016-04-24T06:34:03.225Z,1012.68
2016-04-24T06:35:03.213Z,1012.66
2016-04-24T06:36:03.199Z,1012.67
2016-04-24T06:37:03.186Z,1012.65
2016-04-24T06:38:03.174Z,1012.65
2016-04-24T06:39:03.599Z,1012.65
2016-04-24T06:40:03.132Z,1012.62
2016-04-24T06:41:03.119Z,1012.67
2016-04-24T06:42:03.106Z,1012.68
2016-04-24T06:43:03.094Z,1012.71
2016-04-24T06:44:03.079Z,1012.71
2016-04-24T06:45:03.068Z,1012.7
2016-04-24T06:46:03.038Z,1012.72
2016-04-24T06:47:03.026Z,1012.72
2016-04-24T06:48:03.012Z,1012.72
2016-04-24T06:49:03.001Z,1012.71
2016-04-24T06:50:02.987Z,1012.74
2016-04-24T06:51:02.959Z,1012.71
2016-04-24T06:52:02.945Z,1012.76
2016-04-24T06:53:02.933Z,1012.73
2016-04-24T06:54:02.904Z,1012.75
2016-04-24T06:55:02.907Z,1012.76
2016-04-24T06:56:02.878Z,1012.72
2016-04-24T06:57:02.865Z,1012.79
2016-04-24T06:58:02.852Z,1012.75
2016-04-24T06:59:02.840Z,1012.74
2016-04-24T07:00:02.826Z,1012.72
2016-04-24T07:01:02.798Z,1012.72
2016-04-24T07:02:02.785Z,1012.7
2016-04-24T07:03:02.772Z,1012.68
2016-04-24T07:04:02.758Z,1012.69
2016-04-24T07:05:02.746Z,1012.66
2016-04-24T07:06:02.717Z,1012.68
2016-04-24T07:07:02.705Z,1012.71
2016-04-24T07:08:02.691Z,1012.69
2016-04-24T07:09:02.819Z,1012.69
2016-04-24T07:10:02.666Z,1012.73
2016-04-24T07:11:02.653Z,1012.7
2016-04-24T07:12:02.624Z,1012.69
2016-04-24T07:13:02.611Z,1012.71
2016-04-24T07:14:02.599Z,1012.7
2016-04-24T07:15:02.585Z,1012.66
2016-04-24T07:16:02.573Z,1012.64
2016-04-24T07:17:02.544Z,1012.71
2016-04-24T07:18:02.531Z,1012.69
2016-04-24T07:19:02.518Z,1012.69
2016-04-24T07:20:02.504Z,1012.71
2016-04-24T07:21:02.493Z,1012.7
2016-04-24T07:22:02.465Z,1012.73
2016-04-24T07:23:02.451Z,1012.72
2016-04-24T07:24:02.437Z,1012.75
2016-04-24T07:25:02.425Z,1012.71
2016-04-24T07:26:02.427Z,1012.76
2016-04-24T07:27:02.399Z,1012.79
2016-04-24T07:28:02.371Z,1012.8
2016-04-24T07:29:02.358Z,1012.86
2016-04-24T07:30:02.344Z,1012.86
2016-04-24T07:31:02.332Z,1012.85
2016-04-24T07:32:02.319Z,1012.82
2016-04-24T07:33:02.290Z,1012.85
2016-04-24T07:34:02.278Z,1012.84
2016-04-24T07:35:02.264Z,1012.91
2016-04-24T07:36:02.252Z,1012.83
2016-04-24T07:37:02.222Z,1012.84
2016-04-24T07:38:02.210Z,1012.87
2016-04-24T07:39:02.213Z,1012.9
2016-04-24T07:40:02.184Z,1012.91
2016-04-24T07:41:02.171Z,1012.93
2016-04-24T07:42:02.158Z,1012.91
2016-04-24T07:43:02.145Z,1012.91
2016-04-24T07:44:02.116Z,1012.92
2016-04-24T07:45:02.104Z,1012.89
2016-04-24T07:46:02.091Z,1012.91
2016-04-24T07:47:02.077Z,1012.87
2016-04-24T07:48:02.065Z,1012.89
2016-04-24T07:49:02.051Z,1012.86
2016-04-24T07:50:02.040Z,1012.87
2016-04-24T07:51:02.010Z,1012.87
2016-04-24T07:52:01.998Z,1012.87
2016-04-24T07:53:01.984Z,1012.87
2016-04-24T07:54:01.971Z,1012.88
2016-04-24T07:55:01.958Z,1012.85
2016-04-24T07:56:01.931Z,1012.85
2016-04-24T07:57:01.918Z,1012.89
2016-04-24T07:58:01.904Z,1012.88
2016-04-24T07:59:01.891Z,1012.88
2016-04-24T08:00:01.878Z,1012.87
2016-04-24T08:01:01.850Z,1012.89
2016-04-24T08:02:01.836Z,1012.88
2016-04-24T08:03:01.825Z,1012.82
2016-04-24T08:04:01.811Z,1012.8
2016-04-24T08:05:01.798Z,1012.8
2016-04-24T08:06:01.785Z,1012.78
2016-04-24T08:07:01.772Z,1012.77
2016-04-24T08:08:01.759Z,1012.78
2016-04-24T08:09:01.747Z,1012.79
2016-04-24T08:10:01.718Z,1012.82
2016-04-24T08:11:01.705Z,1012.88
2016-04-24T08:12:01.691Z,1012.88
2016-04-24T08:13:01.679Z,1012.89
2016-04-24T08:14:01.666Z,1012.87
2016-04-24T08:15:01.653Z,1012.9
2016-04-24T08:16:01.640Z,1012.88
2016-04-24T08:17:01.627Z,1012.88
2016-04-24T08:18:01.598Z,1012.86
2016-04-24T08:19:01.586Z,1012.89
2016-04-24T08:20:01.573Z,1012.88
2016-04-24T08:21:01.560Z,1012.83
2016-04-24T08:22:03.360Z,1012.85
2016-04-24T08:23:01.518Z,1012.84
2016-04-24T08:24:01.520Z,1012.85
2016-04-24T08:25:01.509Z,1012.82
2016-04-24T08:26:01.495Z,1012.83
2016-04-24T08:27:01.467Z,1012.83
2016-04-24T08:28:01.453Z,1012.85
2016-04-24T08:29:01.440Z,1012.85
2016-04-24T08:30:01.412Z,1012.91
2016-04-24T08:31:01.509Z,1012.85
2016-04-24T08:32:01.418Z,1012.86
2016-04-24T08:33:01.373Z,1012.83
2016-04-24T08:34:01.361Z,1012.83
2016-04-24T08:35:01.347Z,1012.86
2016-04-24T08:36:01.334Z,1012.84
2016-04-24T08:37:01.322Z,1012.87
2016-04-24T08:38:01.308Z,1012.86
2016-04-24T08:39:01.546Z,1012.9
2016-04-24T08:40:01.267Z,1012.86
2016-04-24T08:41:01.255Z,1012.87
2016-04-24T08:42:01.241Z,1012.86
2016-04-24T08:43:01.228Z,1012.86
2016-04-24T08:44:01.216Z,1012.84
2016-04-24T08:45:01.202Z,1012.86
2016-04-24T08:46:01.174Z,1012.86
2016-04-24T08:47:01.161Z,1012.83
2016-04-24T08:48:01.148Z,1012.82
2016-04-24T08:49:01.135Z,1012.83
2016-04-24T08:50:01.121Z,1012.84
2016-04-24T08:51:01.110Z,1012.76
2016-04-24T08:52:01.097Z,1012.77
2016-04-24T08:53:01.084Z,1012.77
2016-04-24T08:54:01.132Z,1012.74
2016-04-24T08:55:01.057Z,1012.73
2016-04-24T08:56:01.045Z,1012.68
2016-04-24T08:57:01.031Z,1012.63
2016-04-24T08:58:01.003Z,1012.66
2016-04-24T08:59:00.990Z,1012.63
2016-04-24T09:00:00.993Z,1012.68
2016-04-24T09:01:00.964Z,1012.61
2016-04-24T09:02:00.951Z,1012.63
2016-04-24T09:03:00.939Z,1012.62
2016-04-24T09:04:00.909Z,1012.65
2016-04-24T09:05:00.912Z,1012.62
2016-04-24T09:06:00.900Z,1012.66
2016-04-24T09:07:00.871Z,1012.65
2016-04-24T09:08:00.858Z,1012.64
2016-04-24T09:09:01.142Z,1012.64
2016-04-24T09:10:00.833Z,1012.65
2016-04-24T09:11:00.820Z,1012.67
2016-04-24T09:12:00.806Z,1012.67
2016-04-24T09:13:00.794Z,1012.61
2016-04-24T09:14:00.780Z,1012.64
2016-04-24T09:15:00.768Z,1012.64
2016-04-24T09:16:00.755Z,1012.63
2016-04-24T09:17:00.741Z,1012.68
2016-04-24T09:18:00.713Z,1012.71
2016-04-24T09:19:00.700Z,1012.69
2016-04-24T09:20:00.688Z,1012.77
2016-04-24T09:21:00.690Z,1012.78
2016-04-24T09:22:00.662Z,1012.78
2016-04-24T09:23:00.648Z,1012.83
2016-04-24T09:24:00.635Z,1012.84
2016-04-24T09:25:01.123Z,1012.82
2016-04-24T09:26:00.610Z,1012.86
2016-04-24T09:27:00.596Z,1012.87
2016-04-24T09:28:00.584Z,1012.87
2016-04-24T09:29:00.571Z,1012.87
2016-04-24T09:30:00.558Z,1012.91
2016-04-24T09:31:00.545Z,1012.92
2016-04-24T09:32:02.766Z,1012.89
2016-04-24T09:33:00.520Z,1012.97
2016-04-24T09:34:00.506Z,1012.97
2016-04-24T09:35:00.478Z,1012.97
2016-04-24T09:36:00.465Z,1012.98
2016-04-24T09:37:00.467Z,1013.05
2016-04-24T09:38:00.439Z,1013.05
2016-04-24T09:39:00.441Z,1013.04
2016-04-24T09:40:00.414Z,1013.02
2016-04-24T09:41:00.400Z,1012.99
2016-04-24T09:42:00.387Z,1013.04
2016-04-24T09:43:00.375Z,1013.03
2016-04-24T09:44:00.361Z,1013.08
2016-04-24T09:45:00.349Z,1013.09
2016-04-24T09:46:00.336Z,1013.07
2016-04-24T09:47:00.323Z,1013.04
2016-04-24T09:48:00.310Z,1013.03
2016-04-24T09:49:00.297Z,1013.03
2016-04-24T09:50:00.283Z,1012.99
2016-04-24T09:51:00.271Z,1013.07
2016-04-24T09:52:00.257Z,1013.04
2016-04-24T09:53:00.246Z,1013.04
2016-04-24T09:54:00.232Z,1013.03
2016-04-24T09:55:00.219Z,1013.06
2016-04-24T09:56:00.221Z,1013.06
2016-04-24T09:57:00.193Z,1013.08
2016-04-24T09:58:00.180Z,1013.09
2016-04-24T09:59:00.167Z,1013.06
2016-04-24T10:00:00.154Z,1013.06
2016-04-24T10:01:00.142Z,1013.07
2016-04-24T10:02:00.129Z,1013.04
2016-04-24T10:03:00.115Z,1013.07
2016-04-24T10:04:00.103Z,1013.04
2016-04-24T10:05:00.090Z,1013.03
2016-04-24T10:06:00.076Z,1012.98
2016-04-24T10:07:00.064Z,1012.98
2016-04-24T10:08:00.051Z,1013
2016-04-24T10:09:00.039Z,1013.02
2016-04-24T10:10:00.025Z,1013.02
2016-04-24T10:11:00.012Z,1013.01
2016-04-24T10:12:00.000Z,1013.06
2016-04-24T10:12:59.986Z,1013.03
2016-04-24T10:13:59.973Z,1013.07
2016-04-24T10:14:59.961Z,1013.08
2016-04-24T10:15:59.947Z,1013.08
2016-04-24T10:16:59.935Z,1013.09
2016-04-24T10:17:59.938Z,1013.07
2016-04-24T10:18:59.908Z,1013.09
2016-04-24T10:19:59.912Z,1013.08
2016-04-24T10:20:59.883Z,1013.12
2016-04-24T10:21:59.869Z,1013.16
2016-04-24T10:22:59.857Z,1013.16
2016-04-24T10:23:59.859Z,1013.16
2016-04-24T10:24:59.847Z,1013.15
2016-04-24T10:25:59.818Z,1013.14
2016-04-24T10:26:59.821Z,1013.1
2016-04-24T10:27:59.807Z,1013.09
2016-04-24T10:28:59.796Z,1013.1
2016-04-24T10:29:59.782Z,1013.11
2016-04-24T10:30:59.769Z,1013.1
2016-04-24T10:31:59.756Z,1013.07
2016-04-24T10:32:59.743Z,1013.09
2016-04-24T10:33:59.731Z,1013.04
2016-04-24T10:34:59.734Z,1013.11
2016-04-24T10:35:59.721Z,1013.08
2016-04-24T10:36:59.707Z,1013.17
2016-04-24T10:37:59.694Z,1013.12
2016-04-24T10:38:59.681Z,1013.12
2016-04-24T10:39:59.668Z,1013.12
2016-04-24T10:40:59.655Z,1013.1
2016-04-24T10:41:59.642Z,1013.07
2016-04-24T10:42:59.630Z,1013.09
2016-04-24T10:43:59.633Z,1013.05
2016-04-24T10:44:59.620Z,1013.06
2016-04-24T10:45:59.606Z,1013.01
2016-04-24T10:46:59.593Z,1013.03
2016-04-24T10:47:59.581Z,1012.96
2016-04-24T10:48:59.567Z,1012.97
2016-04-24T10:49:59.570Z,1012.97
2016-04-24T10:50:59.558Z,1012.97
2016-04-24T10:51:59.544Z,1013
2016-04-24T10:52:59.532Z,1013.03
2016-04-24T10:53:59.535Z,1013.06
2016-04-24T10:54:59.521Z,1013.05
2016-04-24T10:55:59.505Z,1013.03
2016-04-24T10:56:59.508Z,1013.03
2016-04-24T10:57:59.480Z,1013.01
2016-04-24T10:58:59.482Z,1013.06
2016-04-24T10:59:59.476Z,1013.05
2016-04-24T11:00:59.504Z,1013.24
2016-04-24T11:01:59.548Z,1013.42
2016-04-24T11:02:59.576Z,1013.45
2016-04-24T11:03:59.605Z,1013.41
2016-04-24T11:04:59.644Z,1013.43
2016-04-24T11:05:59.646Z,1013.45
2016-04-24T11:06:59.648Z,1013.45
2016-04-24T11:07:59.665Z,1013.43
2016-04-24T11:08:59.683Z,1013.4
2016-04-24T11:09:59.684Z,1013.38
2016-04-24T11:10:59.693Z,1013.34
2016-04-24T11:11:59.684Z,1013.32
2016-04-24T11:12:59.693Z,1013.3
2016-04-24T11:13:59.685Z,1013.3
2016-04-24T11:14:59.692Z,1013.29
2016-04-24T11:15:59.697Z,1013.29
2016-04-24T11:16:59.701Z,1013.23
2016-04-24T11:17:59.706Z,1013.21
2016-04-24T11:18:59.711Z,1013.12
2016-04-24T11:19:59.700Z,1013.11
2016-04-24T11:20:59.703Z,1013.03
2016-04-24T11:21:59.706Z,1013.03
2016-04-24T11:22:59.709Z,1013.03
2016-04-24T11:23:59.712Z,1013.03
2016-04-24T11:24:59.730Z,1013.01
2016-04-24T11:25:59.718Z,1012.99
2016-04-24T11:26:59.705Z,1012.98
2016-04-24T11:27:59.709Z,1013
2016-04-24T11:28:59.711Z,1013.01
2016-04-24T11:29:59.715Z,1013.01
2016-04-24T11:30:59.718Z,1013.01
2016-04-24T11:31:59.720Z,1012.88
2016-04-24T11:32:59.723Z,1012.89
2016-04-24T11:33:59.741Z,1013.02
2016-04-24T11:34:59.728Z,1012.89
2016-04-24T11:35:59.746Z,1012.58
2016-04-24T11:36:59.749Z,1012.6
2016-04-24T11:37:59.752Z,1013.01
2016-04-24T11:38:59.755Z,1012.98
2016-04-24T11:39:59.757Z,1013.05
2016-04-24T11:40:59.760Z,1013.03
2016-04-24T11:41:59.762Z,1012.99
2016-04-24T11:42:59.765Z,1012.92
2016-04-24T11:43:59.769Z,1012.91
2016-04-24T11:44:59.771Z,1012.85
2016-04-24T11:45:59.773Z,1012.79
2016-04-24T11:46:59.776Z,1012.97
2016-04-24T11:47:59.779Z,1012.94
2016-04-24T11:48:59.782Z,1012.95
2016-04-24T11:49:59.784Z,1012.92
2016-04-24T11:50:59.787Z,1012.92
2016-04-24T11:51:59.790Z,1012.89
2016-04-24T11:52:59.793Z,1012.88
2016-04-24T11:53:59.795Z,1012.86
2016-04-24T11:54:59.813Z,1012.81
2016-04-24T11:55:59.816Z,1012.84
2016-04-24T11:56:59.818Z,1012.81
2016-04-24T11:57:59.821Z,1012.84
2016-04-24T11:58:59.824Z,1012.85
2016-04-24T11:59:59.826Z,1012.48
2016-04-24T12:00:59.829Z,1012.85
2016-04-24T12:01:59.831Z,1012.83
2016-04-24T12:02:59.834Z,1012.88
2016-04-24T12:03:59.853Z,1012.79
2016-04-24T12:04:59.856Z,1012.75
2016-04-24T12:05:59.858Z,1012.73
2016-04-24T12:06:59.861Z,1012.75